sensor_id;sensor_type;location;lat;lon;timestamp;temperature;humidity
29007;DHT22;16104;48.642;9.008;2023-03-01T00:01:15;2.80;53.20
29007;DHT22;16104;48.642;9.008;2023-03-01T00:06:11;2.80;53.10
29007;DHT22;16104;48.642;9.008;2023-03-01T00:11:16;2.80;53.10
29007;DHT22;16104;48.642;9.008;2023-03-01T00:16:17;2.80;53.30
29007;DHT22;16104;48.642;9.008;2023-03-01T00:21:13;2.70;53.20
29007;DHT22;16104;48.642;9.008;2023-03-01T00:26:12;2.70;53.20
29007;DHT22;16104;48.642;9.008;2023-03-01T00:31:11;2.70;53.20
29007;DHT22;16104;48.642;9.008;2023-03-01T00:36:08;2.60;53.20
29007;DHT22;16104;48.642;9.008;2023-03-01T00:41:12;2.60;53.30
29007;DHT22;16104;48.642;9.008;2023-03-01T00:46:14;2.60;53.30
29007;DHT22;16104;48.642;9.008;2023-03-01T00:51:19;2.50;53.40
29007;DHT22;16104;48.642;9.008;2023-03-01T00:56:15;2.40;53.50
29007;DHT22;16104;48.642;9.008;2023-03-01T02:02:15;1.80;55.00
29007;DHT22;16104;48.642;9.008;2023-03-01T02:07:20;1.80;55.10
29007;DHT22;16104;48.642;9.008;2023-03-01T02:12:19;1.80;55.40
29007;DHT22;16104;48.642;9.008;2023-03-01T03:03:03;1.80;56.30
29007;DHT22;16104;48.642;9.008;2023-03-01T03:08:01;1.90;56.30
29007;DHT22;16104;48.642;9.008;2023-03-01T03:13:02;1.90;56.40
29007;DHT22;16104;48.642;9.008;2023-03-01T04:03:46;2.20;56.30
29007;DHT22;16104;48.642;9.008;2023-03-01T04:08:42;2.20;56.30
29007;DHT22;16104;48.642;9.008;2023-03-01T04:13:37;2.30;56.40
29007;DHT22;16104;48.642;9.008;2023-03-01T04:18:33;2.30;56.40
29007;DHT22;16104;48.642;9.008;2023-03-01T04:23:28;2.30;56.40
29007;DHT22;16104;48.642;9.008;2023-03-01T04:28:32;2.30;56.40
29007;DHT22;16104;48.642;9.008;2023-03-01T04:33:29;2.30;56.70
29007;DHT22;16104;48.642;9.008;2023-03-01T04:38:24;2.40;56.50
29007;DHT22;16104;48.642;9.008;2023-03-01T04:43:20;2.40;56.50
29007;DHT22;16104;48.642;9.008;2023-03-01T04:48:16;2.40;56.50
29007;DHT22;16104;48.642;9.008;2023-03-01T04:53:11;2.40;56.50
29007;DHT22;16104;48.642;9.008;2023-03-01T04:58:07;2.40;56.40
29007;DHT22;16104;48.642;9.008;2023-03-01T05:03:02;2.50;56.50
29007;DHT22;16104;48.642;9.008;2023-03-01T05:08:00;2.50;56.50
29007;DHT22;16104;48.642;9.008;2023-03-01T05:12:57;2.50;56.60
29007;DHT22;16104;48.642;9.008;2023-03-01T05:17:53;2.60;56.60
29007;DHT22;16104;48.642;9.008;2023-03-01T05:22:51;2.60;56.60
29007;DHT22;16104;48.642;9.008;2023-03-01T05:27:47;2.60;56.50
29007;DHT22;16104;48.642;9.008;2023-03-01T05:32:47;2.60;56.50
29007;DHT22;16104;48.642;9.008;2023-03-01T05:37:46;2.60;56.50
29007;DHT22;16104;48.642;9.008;2023-03-01T05:42:47;2.60;56.60
29007;DHT22;16104;48.642;9.008;2023-03-01T05:47:44;2.60;56.50
29007;DHT22;16104;48.642;9.008;2023-03-01T05:52:40;2.60;56.40
29007;DHT22;16104;48.642;9.008;2023-03-01T05:57:35;2.70;56.50
29007;DHT22;16104;48.642;9.008;2023-03-01T06:02:31;2.70;56.50
29007;DHT22;16104;48.642;9.008;2023-03-01T06:07:26;2.70;56.60
29007;DHT22;16104;48.642;9.008;2023-03-01T06:12:22;2.70;56.50
29007;DHT22;16104;48.642;9.008;2023-03-01T06:17:17;2.70;56.50
29007;DHT22;16104;48.642;9.008;2023-03-01T06:22:13;2.70;56.60
29007;DHT22;16104;48.642;9.008;2023-03-01T06:27:08;2.70;56.60
29007;DHT22;16104;48.642;9.008;2023-03-01T06:32:04;2.80;56.60
29007;DHT22;16104;48.642;9.008;2023-03-01T06:36:59;2.80;56.60
29007;DHT22;16104;48.642;9.008;2023-03-01T06:41:57;2.80;56.60
29007;DHT22;16104;48.642;9.008;2023-03-01T06:46:53;2.90;56.70
29007;DHT22;16104;48.642;9.008;2023-03-01T06:51:49;2.90;56.60
29007;DHT22;16104;48.642;9.008;2023-03-01T06:56:47;2.90;56.60
29007;DHT22;16104;48.642;9.008;2023-03-01T07:01:42;3.00;56.70
29007;DHT22;16104;48.642;9.008;2023-03-01T07:06:39;3.00;56.50
29007;DHT22;16104;48.642;9.008;2023-03-01T07:11:34;3.10;56.70
29007;DHT22;16104;48.642;9.008;2023-03-01T07:16:30;3.10;56.60
29007;DHT22;16104;48.642;9.008;2023-03-01T07:21:25;3.10;56.50
29007;DHT22;16104;48.642;9.008;2023-03-01T07:26:21;3.20;56.50
29007;DHT22;16104;48.642;9.008;2023-03-01T07:31:17;3.20;56.40
29007;DHT22;16104;48.642;9.008;2023-03-01T07:36:12;3.20;56.40
29007;DHT22;16104;48.642;9.008;2023-03-01T07:41:08;3.20;56.50
29007;DHT22;16104;48.642;9.008;2023-03-01T07:46:04;3.30;56.50
29007;DHT22;16104;48.642;9.008;2023-03-01T07:51:01;3.30;56.50
29007;DHT22;16104;48.642;9.008;2023-03-01T07:56:05;3.30;56.40
29007;DHT22;16104;48.642;9.008;2023-03-01T08:01:03;3.40;56.50
29007;DHT22;16104;48.642;9.008;2023-03-01T08:06:02;3.40;56.50
29007;DHT22;16104;48.642;9.008;2023-03-01T08:11:00;3.50;56.40
29007;DHT22;16104;48.642;9.008;2023-03-01T08:16:04;3.50;56.30
29007;DHT22;16104;48.642;9.008;2023-03-01T08:21:12;3.60;56.30
29007;DHT22;16104;48.642;9.008;2023-03-01T08:26:14;3.70;56.30
29007;DHT22;16104;48.642;9.008;2023-03-01T08:31:34;3.70;56.20
29007;DHT22;16104;48.642;9.008;2023-03-01T08:36:34;3.80;56.10
29007;DHT22;16104;48.642;9.008;2023-03-01T08:41:31;3.90;56.00
29007;DHT22;16104;48.642;9.008;2023-03-01T08:46:32;4.00;55.80
29007;DHT22;16104;48.642;9.008;2023-03-01T08:51:28;4.10;55.70
29007;DHT22;16104;48.642;9.008;2023-03-01T08:56:24;4.20;55.60
29007;DHT22;16104;48.642;9.008;2023-03-01T09:01:21;4.30;55.70
29007;DHT22;16104;48.642;9.008;2023-03-01T09:06:17;4.30;55.50
29007;DHT22;16104;48.642;9.008;2023-03-01T09:11:15;4.40;55.50
29007;DHT22;16104;48.642;9.008;2023-03-01T09:16:13;4.60;55.30
29007;DHT22;16104;48.642;9.008;2023-03-01T09:21:14;4.70;55.10
29007;DHT22;16104;48.642;9.008;2023-03-01T09:26:18;4.70;54.90
29007;DHT22;16104;48.642;9.008;2023-03-01T09:31:16;4.90;54.80
29007;DHT22;16104;48.642;9.008;2023-03-01T09:36:14;5.00;54.90
29007;DHT22;16104;48.642;9.008;2023-03-01T09:41:44;5.10;54.70
29007;DHT22;16104;48.642;9.008;2023-03-01T09:46:43;5.30;54.60
29007;DHT22;16104;48.642;9.008;2023-03-01T09:51:42;5.40;54.40
29007;DHT22;16104;48.642;9.008;2023-03-01T09:56:41;5.60;54.20
29007;DHT22;16104;48.642;9.008;2023-03-01T10:06:36;5.80;53.60
29007;DHT22;16104;48.642;9.008;2023-03-01T10:11:53;6.00;53.70
29007;DHT22;16104;48.642;9.008;2023-03-01T10:16:58;6.20;53.00
29007;DHT22;16104;48.642;9.008;2023-03-01T10:22:03;6.30;52.90
29007;DHT22;16104;48.642;9.008;2023-03-01T10:27:09;6.50;53.10
29007;DHT22;16104;48.642;9.008;2023-03-01T10:32:06;6.60;53.00
29007;DHT22;16104;48.642;9.008;2023-03-01T10:37:19;6.90;52.90
29007;DHT22;16104;48.642;9.008;2023-03-01T10:42:25;7.10;52.10
29007;DHT22;16104;48.642;9.008;2023-03-01T10:47:26;7.20;52.00
29007;DHT22;16104;48.642;9.008;2023-03-01T10:52:34;7.50;51.80
29007;DHT22;16104;48.642;9.008;2023-03-01T10:57:33;7.60;51.80
29007;DHT22;16104;48.642;9.008;2023-03-01T11:02:31;7.80;51.80
29007;DHT22;16104;48.642;9.008;2023-03-01T11:07:29;8.10;51.80
29007;DHT22;16104;48.642;9.008;2023-03-01T11:12:25;8.30;51.60
29007;DHT22;16104;48.642;9.008;2023-03-01T11:17:30;8.60;51.00
29007;DHT22;16104;48.642;9.008;2023-03-01T11:22:27;8.80;50.60
29007;DHT22;16104;48.642;9.008;2023-03-01T11:27:29;9.10;50.30
29007;DHT22;16104;48.642;9.008;2023-03-01T11:32:29;9.30;49.80
29007;DHT22;16104;48.642;9.008;2023-03-01T11:37:37;9.50;49.60
29007;DHT22;16104;48.642;9.008;2023-03-01T11:42:46;9.60;50.50
29007;DHT22;16104;48.642;9.008;2023-03-01T11:48:10;9.90;49.10
29007;DHT22;16104;48.642;9.008;2023-03-01T11:58:33;10.30;48.70
29007;DHT22;16104;48.642;9.008;2023-03-01T12:03:54;10.60;48.50
29007;DHT22;16104;48.642;9.008;2023-03-01T12:09:06;10.90;47.30
29007;DHT22;16104;48.642;9.008;2023-03-01T12:24:55;11.60;46.60
29007;DHT22;16104;48.642;9.008;2023-03-01T12:51:11;12.60;44.40
29007;DHT22;16104;48.642;9.008;2023-03-01T12:56:15;12.80;44.70
29007;DHT22;16104;48.642;9.008;2023-03-01T13:06:53;13.20;42.90
29007;DHT22;16104;48.642;9.008;2023-03-01T13:11:50;13.40;43.10
29007;DHT22;16104;48.642;9.008;2023-03-01T13:16:46;13.50;43.50
29007;DHT22;16104;48.642;9.008;2023-03-01T13:21:45;13.70;42.90
29007;DHT22;16104;48.642;9.008;2023-03-01T13:32:01;13.90;41.70
29007;DHT22;16104;48.642;9.008;2023-03-01T13:37:10;14.10;44.30
29007;DHT22;16104;48.642;9.008;2023-03-01T13:42:36;14.30;42.20
29007;DHT22;16104;48.642;9.008;2023-03-01T13:47:34;14.40;41.40
29007;DHT22;16104;48.642;9.008;2023-03-01T13:52:38;14.50;41.50
29007;DHT22;16104;48.642;9.008;2023-03-01T13:57:37;14.50;41.10
29007;DHT22;16104;48.642;9.008;2023-03-01T14:02:36;14.50;41.10
29007;DHT22;16104;48.642;9.008;2023-03-01T14:07:32;14.60;41.20
29007;DHT22;16104;48.642;9.008;2023-03-01T14:22:55;14.60;39.40
29007;DHT22;16104;48.642;9.008;2023-03-01T14:32:59;14.60;40.00
29007;DHT22;16104;48.642;9.008;2023-03-01T14:37:54;14.60;39.60
29007;DHT22;16104;48.642;9.008;2023-03-01T14:42:50;14.60;39.90
29007;DHT22;16104;48.642;9.008;2023-03-01T14:47:47;14.60;40.00
29007;DHT22;16104;48.642;9.008;2023-03-01T14:52:47;14.60;39.80
29007;DHT22;16104;48.642;9.008;2023-03-01T14:57:45;14.50;39.10
29007;DHT22;16104;48.642;9.008;2023-03-01T15:02:42;14.50;39.80
29007;DHT22;16104;48.642;9.008;2023-03-01T15:07:42;14.30;40.30
29007;DHT22;16104;48.642;9.008;2023-03-01T15:12:44;14.30;39.40
29007;DHT22;16104;48.642;9.008;2023-03-01T15:17:39;14.20;39.60
29007;DHT22;16104;48.642;9.008;2023-03-01T15:22:35;14.10;39.60
29007;DHT22;16104;48.642;9.008;2023-03-01T15:27:30;13.90;39.80
29007;DHT22;16104;48.642;9.008;2023-03-01T15:32:31;13.90;40.00
29007;DHT22;16104;48.642;9.008;2023-03-01T15:37:46;13.80;39.70
29007;DHT22;16104;48.642;9.008;2023-03-01T15:42:45;13.80;39.30
29007;DHT22;16104;48.642;9.008;2023-03-01T15:47:41;13.70;40.00
29007;DHT22;16104;48.642;9.008;2023-03-01T15:52:41;13.60;39.70
29007;DHT22;16104;48.642;9.008;2023-03-01T15:57:38;13.50;39.60
29007;DHT22;16104;48.642;9.008;2023-03-01T16:02:34;13.30;40.60
29007;DHT22;16104;48.642;9.008;2023-03-01T16:07:29;13.10;40.20
29007;DHT22;16104;48.642;9.008;2023-03-01T16:12:26;12.90;40.10
29007;DHT22;16104;48.642;9.008;2023-03-01T16:17:21;12.70;40.10
29007;DHT22;16104;48.642;9.008;2023-03-01T16:22:17;12.50;40.30
29007;DHT22;16104;48.642;9.008;2023-03-01T16:27:12;12.30;40.60
29007;DHT22;16104;48.642;9.008;2023-03-01T16:32:10;12.10;40.70
29007;DHT22;16104;48.642;9.008;2023-03-01T16:37:06;11.90;41.00
29007;DHT22;16104;48.642;9.008;2023-03-01T16:42:01;11.70;41.00
29007;DHT22;16104;48.642;9.008;2023-03-01T16:46:57;11.50;41.20
29007;DHT22;16104;48.642;9.008;2023-03-01T16:51:55;11.30;41.30
29007;DHT22;16104;48.642;9.008;2023-03-01T16:56:51;11.10;41.30
29007;DHT22;16104;48.642;9.008;2023-03-01T17:01:46;10.90;41.60
29007;DHT22;16104;48.642;9.008;2023-03-01T17:06:42;10.70;41.70
29007;DHT22;16104;48.642;9.008;2023-03-01T17:11:38;10.50;41.80
29007;DHT22;16104;48.642;9.008;2023-03-01T17:16:33;10.30;42.10
29007;DHT22;16104;48.642;9.008;2023-03-01T17:21:30;10.10;42.40
29007;DHT22;16104;48.642;9.008;2023-03-01T17:26:26;10.00;42.60
29007;DHT22;16104;48.642;9.008;2023-03-01T17:31:23;9.80;42.80
29007;DHT22;16104;48.642;9.008;2023-03-01T17:36:19;9.60;42.90
29007;DHT22;16104;48.642;9.008;2023-03-01T17:41:15;9.50;43.10
29007;DHT22;16104;48.642;9.008;2023-03-01T17:46:13;9.40;43.30
29007;DHT22;16104;48.642;9.008;2023-03-01T17:51:09;9.30;43.50
29007;DHT22;16104;48.642;9.008;2023-03-01T17:56:06;9.10;43.70
29007;DHT22;16104;48.642;9.008;2023-03-01T18:01:10;9.00;43.90
29007;DHT22;16104;48.642;9.008;2023-03-01T18:06:20;8.90;44.10
29007;DHT22;16104;48.642;9.008;2023-03-01T18:11:17;8.80;44.30
29007;DHT22;16104;48.642;9.008;2023-03-01T18:16:15;8.70;44.50
29007;DHT22;16104;48.642;9.008;2023-03-01T18:21:11;8.60;44.80
29007;DHT22;16104;48.642;9.008;2023-03-01T18:26:10;8.50;44.90
29007;DHT22;16104;48.642;9.008;2023-03-01T18:31:08;8.40;45.00
29007;DHT22;16104;48.642;9.008;2023-03-01T18:36:12;8.30;45.20
29007;DHT22;16104;48.642;9.008;2023-03-01T18:41:10;8.20;45.30
29007;DHT22;16104;48.642;9.008;2023-03-01T18:46:05;8.10;45.50
29007;DHT22;16104;48.642;9.008;2023-03-01T18:51:12;8.10;45.60
29007;DHT22;16104;48.642;9.008;2023-03-01T18:56:09;8.00;45.80
29007;DHT22;16104;48.642;9.008;2023-03-01T19:01:05;7.90;45.90
29007;DHT22;16104;48.642;9.008;2023-03-01T19:06:06;7.80;46.00
29007;DHT22;16104;48.642;9.008;2023-03-01T19:11:04;7.70;46.20
29007;DHT22;16104;48.642;9.008;2023-03-01T19:16:11;7.60;46.30
29007;DHT22;16104;48.642;9.008;2023-03-01T19:21:08;7.50;46.50
29007;DHT22;16104;48.642;9.008;2023-03-01T19:26:07;7.50;46.60
29007;DHT22;16104;48.642;9.008;2023-03-01T19:31:06;7.40;46.70
29007;DHT22;16104;48.642;9.008;2023-03-01T19:36:03;7.30;46.80
29007;DHT22;16104;48.642;9.008;2023-03-01T19:41:04;7.30;47.00
29007;DHT22;16104;48.642;9.008;2023-03-01T19:46:00;7.10;47.20
29007;DHT22;16104;48.642;9.008;2023-03-01T19:50:56;7.10;47.30
29007;DHT22;16104;48.642;9.008;2023-03-01T19:55:58;7.00;47.40
29007;DHT22;16104;48.642;9.008;2023-03-01T20:00:57;6.90;47.70
29007;DHT22;16104;48.642;9.008;2023-03-01T20:05:53;6.90;47.90
29007;DHT22;16104;48.642;9.008;2023-03-01T20:10:48;6.80;48.00
29007;DHT22;16104;48.642;9.008;2023-03-01T20:15:44;6.80;48.20
29007;DHT22;16104;48.642;9.008;2023-03-01T20:20:39;6.70;48.30
29007;DHT22;16104;48.642;9.008;2023-03-01T20:25:35;6.70;48.50
29007;DHT22;16104;48.642;9.008;2023-03-01T20:30:30;6.70;48.70
29007;DHT22;16104;48.642;9.008;2023-03-01T20:35:26;6.70;48.70
29007;DHT22;16104;48.642;9.008;2023-03-01T20:40:22;6.70;48.90
29007;DHT22;16104;48.642;9.008;2023-03-01T20:45:22;6.60;49.00
29007;DHT22;16104;48.642;9.008;2023-03-01T20:50:19;6.60;49.10
29007;DHT22;16104;48.642;9.008;2023-03-01T20:55:14;6.60;49.30
29007;DHT22;16104;48.642;9.008;2023-03-01T21:00:10;6.60;49.30
29007;DHT22;16104;48.642;9.008;2023-03-01T21:05:06;6.50;49.40
29007;DHT22;16104;48.642;9.008;2023-03-01T21:10:02;6.50;49.50
29007;DHT22;16104;48.642;9.008;2023-03-01T21:14:58;6.50;49.70
29007;DHT22;16104;48.642;9.008;2023-03-01T21:19:53;6.50;49.80
29007;DHT22;16104;48.642;9.008;2023-03-01T21:24:50;6.50;49.90
29007;DHT22;16104;48.642;9.008;2023-03-01T21:29:46;6.40;50.00
29007;DHT22;16104;48.642;9.008;2023-03-01T21:34:43;6.40;50.10
29007;DHT22;16104;48.642;9.008;2023-03-01T21:39:39;6.30;50.20
29007;DHT22;16104;48.642;9.008;2023-03-01T21:44:34;6.30;50.30
29007;DHT22;16104;48.642;9.008;2023-03-01T21:49:30;6.20;50.50
29007;DHT22;16104;48.642;9.008;2023-03-01T21:54:25;6.20;50.60
29007;DHT22;16104;48.642;9.008;2023-03-01T21:59:22;6.10;50.60
29007;DHT22;16104;48.642;9.008;2023-03-01T22:04:18;6.10;50.70
29007;DHT22;16104;48.642;9.008;2023-03-01T22:09:22;6.10;50.80
29007;DHT22;16104;48.642;9.008;2023-03-01T22:14:18;6.00;51.00
29007;DHT22;16104;48.642;9.008;2023-03-01T22:19:14;6.00;51.00
29007;DHT22;16104;48.642;9.008;2023-03-01T22:24:11;6.00;51.20
29007;DHT22;16104;48.642;9.008;2023-03-01T22:29:10;5.90;51.20
29007;DHT22;16104;48.642;9.008;2023-03-01T22:34:06;5.90;51.40
29007;DHT22;16104;48.642;9.008;2023-03-01T22:39:02;5.80;51.40
29007;DHT22;16104;48.642;9.008;2023-03-01T22:43:58;5.80;51.50
29007;DHT22;16104;48.642;9.008;2023-03-01T22:48:54;5.80;51.70
29007;DHT22;16104;48.642;9.008;2023-03-01T22:53:50;5.70;51.80
29007;DHT22;16104;48.642;9.008;2023-03-01T22:58:45;5.60;51.80
29007;DHT22;16104;48.642;9.008;2023-03-01T23:03:41;5.60;51.90
29007;DHT22;16104;48.642;9.008;2023-03-01T23:08:37;5.60;52.10
29007;DHT22;16104;48.642;9.008;2023-03-01T23:13:32;5.50;52.10
29007;DHT22;16104;48.642;9.008;2023-03-01T23:18:28;5.50;52.20
29007;DHT22;16104;48.642;9.008;2023-03-01T23:23:23;5.50;52.30
29007;DHT22;16104;48.642;9.008;2023-03-01T23:28:19;5.40;52.40
29007;DHT22;16104;48.642;9.008;2023-03-01T23:33:14;5.40;52.50
29007;DHT22;16104;48.642;9.008;2023-03-01T23:38:10;5.40;52.50
29007;DHT22;16104;48.642;9.008;2023-03-01T23:43:05;5.30;52.60
29007;DHT22;16104;48.642;9.008;2023-03-01T23:48:01;5.30;52.80
29007;DHT22;16104;48.642;9.008;2023-03-01T23:52:57;5.20;52.80
29007;DHT22;16104;48.642;9.008;2023-03-01T23:57:52;5.20;53.10
